createdAt,value
2023-01-03T00:02:12.559Z,14.30
2023-01-03T00:04:42.243Z,14.70
2023-01-03T00:07:13.180Z,12.50
2023-01-03T00:09:40.053Z,13.60
2023-01-03T00:12:30.460Z,13.17
2023-01-03T00:14:59.813Z,11.63
2023-01-03T00:17:27.336Z,12.60
2023-01-03T00:19:54.704Z,12.30
2023-01-03T00:22:21.931Z,11.60
2023-01-03T00:24:50.050Z,12.33
2023-01-03T00:27:17.389Z,11.27
2023-01-03T00:29:44.776Z,12.23
2023-01-03T00:32:12.166Z,11.90
2023-01-03T00:34:39.260Z,10.57
2023-01-03T00:37:06.405Z,11.53
2023-01-03T00:39:34.288Z,12.30
2023-01-03T00:42:01.136Z,11.30
2023-01-03T00:44:28.462Z,12.20
2023-01-03T00:46:55.471Z,10.50
2023-01-03T00:49:22.494Z,10.73
2023-01-03T00:51:50.125Z,12.50
2023-01-03T00:54:17.361Z,13.87
2023-01-03T00:56:45.977Z,13.00
2023-01-03T00:59:14.389Z,12.33
2023-01-03T01:01:48.253Z,11.10
2023-01-03T01:04:23.429Z,10.83
2023-01-03T01:06:56.647Z,10.40
2023-01-03T01:09:27.962Z,9.30
2023-01-03T01:11:55.418Z,9.73
2023-01-03T01:14:24.658Z,8.57
2023-01-03T01:16:54.489Z,8.43
2023-01-03T01:19:26.638Z,8.73
2023-01-03T01:21:54.120Z,7.80
2023-01-03T01:24:21.419Z,7.90
2023-01-03T01:26:48.677Z,9.00
2023-01-03T01:29:16.533Z,7.67
2023-01-03T01:31:44.726Z,8.60
2023-01-03T01:34:12.343Z,8.97
2023-01-03T01:36:42.036Z,8.50
2023-01-03T01:39:16.382Z,8.30
2023-01-03T01:42:02.642Z,8.57
2023-01-03T01:44:44.670Z,7.63
2023-01-03T01:47:32.331Z,8.53
2023-01-03T01:50:02.141Z,7.80
2023-01-03T01:52:32.150Z,8.60
2023-01-03T01:55:01.263Z,9.87
2023-01-03T01:57:30.254Z,9.50
2023-01-03T01:59:57.869Z,9.53
2023-01-03T02:02:25.240Z,9.40
2023-01-03T02:04:57.031Z,10.67
2023-01-03T02:07:24.289Z,9.60
2023-01-03T02:09:56.902Z,8.60
2023-01-03T02:13:07.244Z,9.03
2023-01-03T02:15:53.132Z,10.10
2023-01-03T02:18:34.886Z,10.27
2023-01-03T02:21:39.153Z,9.57
2023-01-03T02:24:19.927Z,9.17
2023-01-03T02:26:49.627Z,9.33
2023-01-03T02:29:43.759Z,9.60
2023-01-03T02:32:27.499Z,9.93
2023-01-03T02:35:15.052Z,10.00
2023-01-03T02:38:12.873Z,11.33
2023-01-03T02:40:45.709Z,10.67
2023-01-03T02:43:42.036Z,11.40
2023-01-03T02:46:24.531Z,10.57
2023-01-03T02:48:59.754Z,10.50
2023-01-03T02:51:35.295Z,10.47
2023-01-03T02:54:05.912Z,10.70
2023-01-03T02:57:01.966Z,11.10
2023-01-03T02:59:53.931Z,11.27
2023-01-03T03:02:24.857Z,13.00
2023-01-03T03:04:56.003Z,11.80
2023-01-03T03:07:27.828Z,11.40
2023-01-03T03:10:15.143Z,10.63
2023-01-03T03:13:02.988Z,12.70
2023-01-03T03:15:44.260Z,11.93
2023-01-03T03:18:18.842Z,12.53
2023-01-03T03:21:04.172Z,12.40
2023-01-03T03:23:54.021Z,13.03
2023-01-03T03:26:27.213Z,10.70
2023-01-03T03:29:00.182Z,10.83
2023-01-03T03:31:36.773Z,12.90
2023-01-03T03:34:12.313Z,11.37
2023-01-03T03:36:53.969Z,10.10
2023-01-03T03:39:41.134Z,12.70
2023-01-03T03:42:45.471Z,12.60
2023-01-03T03:45:36.622Z,12.63
2023-01-03T03:48:17.999Z,12.07
2023-01-03T03:51:10.603Z,12.07
2023-01-03T03:53:39.939Z,13.10
2023-01-03T03:56:17.644Z,12.60
2023-01-03T03:58:49.439Z,12.23
2023-01-03T04:01:20.313Z,12.50
2023-01-03T04:03:49.873Z,12.27
2023-01-03T04:06:27.678Z,11.10
2023-01-03T04:08:54.948Z,13.67
2023-01-03T04:11:21.666Z,12.40
2023-01-03T04:13:48.698Z,12.23
2023-01-03T04:16:15.354Z,12.37
2023-01-03T04:18:42.349Z,12.97
2023-01-03T04:21:09.295Z,13.10
2023-01-03T04:23:36.017Z,13.60
2023-01-03T04:26:02.688Z,13.27
2023-01-03T04:28:29.337Z,12.57
2023-01-03T04:30:56.015Z,13.00
2023-01-03T04:33:22.663Z,13.93
2023-01-03T04:35:49.328Z,12.10
2023-01-03T04:38:16.007Z,12.30
2023-01-03T04:40:42.660Z,12.73
2023-01-03T04:43:29.334Z,12.43
2023-01-03T04:45:56.241Z,12.07
2023-01-03T04:48:23.098Z,11.37
2023-01-03T04:50:58.299Z,13.10
2023-01-03T04:53:27.328Z,12.80
2023-01-03T04:55:56.994Z,11.97
2023-01-03T04:58:23.732Z,12.17
2023-01-03T05:00:50.574Z,11.67
2023-01-03T05:03:21.279Z,12.43
2023-01-03T05:05:52.496Z,11.87
2023-01-03T05:08:19.210Z,13.00
2023-01-03T05:10:45.867Z,11.87
2023-01-03T05:13:12.539Z,13.10
2023-01-03T05:15:39.699Z,12.10
2023-01-03T05:18:06.641Z,11.70
2023-01-03T05:20:55.303Z,12.53
2023-01-03T05:23:45.376Z,11.73
2023-01-03T05:26:15.220Z,13.33
2023-01-03T05:28:45.668Z,11.23
2023-01-03T05:31:12.857Z,12.53
2023-01-03T05:33:41.178Z,11.77
2023-01-03T05:36:09.295Z,12.57
2023-01-03T05:38:37.453Z,12.43
2023-01-03T05:41:05.214Z,11.33
2023-01-03T05:43:32.407Z,11.17
2023-01-03T05:45:59.466Z,11.07
2023-01-03T05:48:27.063Z,11.00
2023-01-03T05:50:58.112Z,11.13
2023-01-03T05:53:25.491Z,11.57
2023-01-03T05:55:52.902Z,11.07
2023-01-03T05:58:19.892Z,10.73
2023-01-03T06:00:48.001Z,11.07
2023-01-03T06:03:14.885Z,10.30
2023-01-03T06:05:47.928Z,11.70
2023-01-03T06:08:17.300Z,10.67
2023-01-03T06:10:44.272Z,11.03
2023-01-03T06:13:11.826Z,10.73
2023-01-03T06:15:38.703Z,11.43
2023-01-03T06:18:05.654Z,12.23
2023-01-03T06:20:32.896Z,11.63
2023-01-03T06:22:59.860Z,11.40
2023-01-03T06:25:26.809Z,11.37
2023-01-03T06:27:54.973Z,10.87
2023-01-03T06:30:21.858Z,11.57
2023-01-03T06:32:49.077Z,11.67
2023-01-03T06:35:15.992Z,11.33
2023-01-03T06:37:42.983Z,11.80
2023-01-03T06:40:10.822Z,12.20
2023-01-03T06:42:40.501Z,11.50
2023-01-03T06:45:26.835Z,10.53
2023-01-03T06:48:12.227Z,10.37
2023-01-03T06:50:59.620Z,11.13
2023-01-03T06:53:31.153Z,12.23
2023-01-03T06:55:59.293Z,10.40
2023-01-03T06:58:27.199Z,12.47
2023-01-03T07:00:56.026Z,12.73
2023-01-03T07:03:23.861Z,13.60
2023-01-03T07:05:51.019Z,12.10
2023-01-03T07:08:18.478Z,12.17
2023-01-03T07:10:45.768Z,11.97
2023-01-03T07:13:31.369Z,12.43
2023-01-03T07:15:58.673Z,11.00
2023-01-03T07:18:26.365Z,12.47
2023-01-03T07:20:54.141Z,12.73
2023-01-03T07:23:21.334Z,10.70
2023-01-03T07:25:48.720Z,12.90
2023-01-03T07:28:16.676Z,10.30
2023-01-03T07:30:45.873Z,12.20
2023-01-03T07:33:15.505Z,12.70
2023-01-03T07:35:42.933Z,10.70
2023-01-03T07:38:12.216Z,11.40
2023-01-03T07:40:39.925Z,12.50
2023-01-03T07:43:25.446Z,11.70
2023-01-03T07:45:52.373Z,12.20
2023-01-03T07:48:19.470Z,12.00
2023-01-03T07:50:46.360Z,11.27
2023-01-03T07:53:16.805Z,12.27
2023-01-03T07:55:45.870Z,12.63
2023-01-03T07:58:13.432Z,11.70
2023-01-03T08:00:41.556Z,11.70
2023-01-03T08:03:11.499Z,11.07
2023-01-03T08:05:39.313Z,12.10
2023-01-03T08:08:06.452Z,11.33
2023-01-03T08:10:52.091Z,11.20
2023-01-03T08:13:19.633Z,11.50
2023-01-03T08:15:48.082Z,12.13
2023-01-03T08:18:17.479Z,11.83
2023-01-03T08:20:44.642Z,12.27
2023-01-03T08:23:11.820Z,11.57
2023-01-03T08:25:40.294Z,12.07
2023-01-03T08:28:08.677Z,12.27
2023-01-03T08:30:40.483Z,12.17
2023-01-03T08:33:09.610Z,12.13
2023-01-03T08:35:41.622Z,13.80
2023-01-03T08:38:13.165Z,13.70
2023-01-03T08:40:42.719Z,13.67
2023-01-03T08:43:11.097Z,13.43
2023-01-03T08:45:38.613Z,14.50
2023-01-03T08:48:06.960Z,12.47
2023-01-03T08:50:35.053Z,13.20
2023-01-03T08:53:02.480Z,13.60
2023-01-03T08:55:29.450Z,12.67
2023-01-03T08:57:57.031Z,12.40
2023-01-03T09:00:24.292Z,12.67
2023-01-03T09:02:51.408Z,12.10
2023-01-03T09:05:18.739Z,12.87
2023-01-03T09:07:45.536Z,13.17
2023-01-03T09:10:12.405Z,12.50
2023-01-03T09:12:39.239Z,13.03
2023-01-03T09:15:07.361Z,12.13
2023-01-03T09:17:34.290Z,10.37
2023-01-03T09:20:01.159Z,10.60
2023-01-03T09:22:28.224Z,9.40
2023-01-03T09:24:55.631Z,9.50
2023-01-03T09:27:22.732Z,9.90
2023-01-03T09:29:49.649Z,9.97
2023-01-03T09:32:16.674Z,9.63
2023-01-03T09:34:44.099Z,10.50
2023-01-03T09:37:11.234Z,11.03
2023-01-03T09:39:40.830Z,10.23
2023-01-03T09:42:34.276Z,10.03
2023-01-03T09:45:02.361Z,8.40
2023-01-03T09:47:36.235Z,9.03
2023-01-03T09:50:31.720Z,9.17
2023-01-03T09:53:10.073Z,9.13
2023-01-03T09:56:15.563Z,9.17
2023-01-03T09:59:03.869Z,9.00
2023-01-03T10:01:58.246Z,8.70
2023-01-03T10:04:44.232Z,7.47
2023-01-03T10:07:29.495Z,8.37
2023-01-03T10:10:22.408Z,9.47
2023-01-03T10:12:59.116Z,9.47
2023-01-03T10:15:52.157Z,8.83
2023-01-03T10:18:52.783Z,7.97
2023-01-03T10:21:38.399Z,7.90
2023-01-03T10:24:37.309Z,8.47
2023-01-03T10:27:14.318Z,8.13
2023-01-03T10:29:41.555Z,7.73
2023-01-03T10:32:14.805Z,7.80
2023-01-03T10:34:41.706Z,7.63
2023-01-03T10:37:27.747Z,7.37
2023-01-03T10:40:05.409Z,7.30
2023-01-03T10:42:34.948Z,8.10
2023-01-03T10:45:21.239Z,7.00
2023-01-03T10:48:06.370Z,6.07
2023-01-03T10:50:38.133Z,6.50
2023-01-03T10:53:08.525Z,6.93
2023-01-03T10:55:43.808Z,6.27
2023-01-03T10:58:35.847Z,6.53
2023-01-03T11:01:22.095Z,6.30
2023-01-03T11:04:15.724Z,7.70
2023-01-03T11:06:59.042Z,6.03
2023-01-03T11:09:34.207Z,5.80
2023-01-03T11:12:30.122Z,6.53
2023-01-03T11:14:58.882Z,6.80
2023-01-03T11:17:27.921Z,6.47
2023-01-03T11:19:56.570Z,5.73
2023-01-03T11:22:45.495Z,6.50
2023-01-03T11:25:45.235Z,6.43
2023-01-03T11:28:31.146Z,7.20
2023-01-03T11:31:30.500Z,5.80
2023-01-03T11:34:23.791Z,6.40
2023-01-03T11:37:13.843Z,6.20
2023-01-03T11:39:58.838Z,7.20
2023-01-03T11:42:49.255Z,6.40
2023-01-03T11:45:44.884Z,6.90
2023-01-03T11:48:28.564Z,6.63
2023-01-03T11:51:09.433Z,5.53
2023-01-03T11:53:38.891Z,5.80
2023-01-03T11:56:34.806Z,5.90
2023-01-03T11:59:13.796Z,6.00
2023-01-03T12:02:29.526Z,5.00
2023-01-03T12:04:56.521Z,4.77
2023-01-03T12:10:22.281Z,5.80
2023-01-03T12:12:54.991Z,5.27
2023-01-03T12:15:29.920Z,5.57
2023-01-03T12:17:59.638Z,5.00
2023-01-03T12:20:27.980Z,4.50
2023-01-03T12:23:15.936Z,4.40
2023-01-03T12:25:48.243Z,3.90
2023-01-03T12:28:30.435Z,4.53
2023-01-03T12:30:58.995Z,5.97
2023-01-03T12:33:57.017Z,4.90
2023-01-03T12:36:51.423Z,4.37
2023-01-03T12:39:47.004Z,4.80
2023-01-03T12:42:36.100Z,4.60
2023-01-03T12:45:09.620Z,5.33
2023-01-03T12:47:49.846Z,4.23
2023-01-03T12:50:37.815Z,4.50
2023-01-03T12:53:28.912Z,4.20
2023-01-03T12:56:14.191Z,4.70
2023-01-03T12:59:17.097Z,4.20
2023-01-03T13:01:54.265Z,4.80
2023-01-03T13:04:35.415Z,4.10
2023-01-03T13:07:05.685Z,4.17
2023-01-03T13:09:40.960Z,4.53
2023-01-03T13:12:23.947Z,4.10
2023-01-03T13:15:04.379Z,4.80
2023-01-03T13:17:42.003Z,5.40
2023-01-03T13:20:15.023Z,4.03
2023-01-03T13:22:56.027Z,4.10
2023-01-03T13:25:32.117Z,3.57
2023-01-03T13:28:03.526Z,3.50
2023-01-03T13:30:36.560Z,4.03
2023-01-03T13:33:18.552Z,4.50
2023-01-03T13:35:45.413Z,4.20
2023-01-03T13:38:42.143Z,3.80
2023-01-03T13:41:37.902Z,4.17
2023-01-03T13:44:16.160Z,3.40
2023-01-03T13:46:43.760Z,3.90
2023-01-03T13:49:19.322Z,3.40
2023-01-03T13:51:51.976Z,3.40
2023-01-03T13:54:18.781Z,2.93
2023-01-03T13:56:45.611Z,2.70
2023-01-03T13:59:15.729Z,2.87
2023-01-03T14:02:04.544Z,3.30
2023-01-03T14:04:59.691Z,2.90
2023-01-03T14:08:10.592Z,2.30
2023-01-03T14:11:06.987Z,3.10
2023-01-03T14:13:46.304Z,2.50
2023-01-03T14:16:18.912Z,2.70
2023-01-03T14:19:24.020Z,2.43
2023-01-03T14:22:21.022Z,2.40
2023-01-03T14:24:55.357Z,2.63
2023-01-03T14:27:26.139Z,2.70
2023-01-03T14:29:55.377Z,2.67
2023-01-03T14:32:34.115Z,2.50
2023-01-03T14:35:02.465Z,2.37
2023-01-03T14:37:30.304Z,2.77
2023-01-03T14:40:00.963Z,2.93
2023-01-03T14:42:28.420Z,2.70
2023-01-03T14:44:56.496Z,2.40
2023-01-03T14:47:35.733Z,2.97
2023-01-03T14:50:04.716Z,2.70
2023-01-03T14:52:39.751Z,2.80
2023-01-03T14:55:16.171Z,2.70
2023-01-03T14:57:44.986Z,2.70
2023-01-03T15:00:30.149Z,2.57
2023-01-03T15:02:59.586Z,2.60
2023-01-03T15:05:33.685Z,2.90
2023-01-03T15:08:15.614Z,3.13
2023-01-03T15:10:49.167Z,2.77
2023-01-03T15:13:34.869Z,2.77
2023-01-03T15:16:05.359Z,3.23
2023-01-03T15:18:35.807Z,3.00
2023-01-03T15:21:04.869Z,3.67
2023-01-03T15:23:37.973Z,3.10
2023-01-03T15:26:06.680Z,3.30
2023-01-03T15:29:04.087Z,3.13
2023-01-03T15:31:38.607Z,3.57
2023-01-03T15:34:14.466Z,3.50
2023-01-03T15:36:42.221Z,3.50
2023-01-03T15:39:36.886Z,3.63
2023-01-03T15:45:19.801Z,4.03
2023-01-03T15:47:49.034Z,4.27
2023-01-03T15:50:18.950Z,5.10
2023-01-03T15:52:49.289Z,4.10
2023-01-03T15:55:17.373Z,3.93
2023-01-03T15:57:54.072Z,4.93
2023-01-03T16:00:23.267Z,4.47
2023-01-03T16:02:50.904Z,3.97
2023-01-03T16:05:22.503Z,4.70
2023-01-03T16:07:50.910Z,4.93
2023-01-03T16:10:18.226Z,4.67
2023-01-03T16:12:45.277Z,4.63
2023-01-03T16:15:20.572Z,4.50
2023-01-03T16:17:49.074Z,4.10
2023-01-03T16:20:17.811Z,4.73
2023-01-03T16:22:57.381Z,6.17
2023-01-03T16:25:28.381Z,6.23
2023-01-03T16:27:55.224Z,5.77
2023-01-03T16:30:24.652Z,5.23
2023-01-03T16:32:52.010Z,4.40
2023-01-03T16:35:19.646Z,4.90
2023-01-03T16:37:47.366Z,5.50
2023-01-03T16:40:20.327Z,6.60
2023-01-03T16:42:48.167Z,5.10
2023-01-03T16:45:16.922Z,4.70
2023-01-03T16:47:44.295Z,5.10
2023-01-03T16:50:18.804Z,5.03
2023-01-03T16:52:50.987Z,6.20
2023-01-03T16:55:22.527Z,6.03
2023-01-03T16:57:54.128Z,5.30
2023-01-03T17:00:28.130Z,4.40
2023-01-03T17:02:56.313Z,4.67
2023-01-03T17:05:23.632Z,4.07
2023-01-03T17:07:53.361Z,5.27
2023-01-03T17:10:31.595Z,4.73
2023-01-03T17:12:59.791Z,5.10
2023-01-03T17:15:27.270Z,4.23
2023-01-03T17:17:54.220Z,5.37
2023-01-03T17:20:22.247Z,5.20
2023-01-03T17:22:57.782Z,5.00
2023-01-03T17:25:25.213Z,4.50
2023-01-03T17:27:56.666Z,4.07
2023-01-03T17:30:26.669Z,4.70
2023-01-03T17:32:53.903Z,5.20
2023-01-03T17:35:21.009Z,5.57
2023-01-03T17:40:42.159Z,5.37
2023-01-03T17:43:19.653Z,4.97
2023-01-03T17:46:06.464Z,4.50
2023-01-03T17:48:52.247Z,4.90
2023-01-03T17:51:19.206Z,3.80
2023-01-03T17:53:46.587Z,4.60
2023-01-03T17:56:20.741Z,4.50
2023-01-03T17:58:56.164Z,4.30
2023-01-03T18:01:23.934Z,4.10
2023-01-03T18:03:51.031Z,4.67
2023-01-03T18:06:21.640Z,4.10
2023-01-03T18:08:48.812Z,3.73
2023-01-03T18:11:19.286Z,3.67
2023-01-03T18:13:47.178Z,4.07
2023-01-03T18:16:18.014Z,3.50
2023-01-03T18:18:45.325Z,4.43
2023-01-03T18:21:29.914Z,3.60
2023-01-03T18:24:21.481Z,3.90
2023-01-03T18:26:53.407Z,3.87
2023-01-03T18:29:20.307Z,4.60
2023-01-03T18:31:47.842Z,4.10
2023-01-03T18:34:15.439Z,4.40
2023-01-03T18:36:49.456Z,4.60
2023-01-03T18:39:25.784Z,4.50
2023-01-03T18:41:53.537Z,3.90
2023-01-03T18:44:23.228Z,3.60
2023-01-03T18:46:51.897Z,3.90
2023-01-03T18:49:19.333Z,3.73
2023-01-03T18:51:49.654Z,4.73
2023-01-03T18:54:19.389Z,5.33
2023-01-03T18:56:46.365Z,5.63
2023-01-03T18:59:25.739Z,5.53
2023-01-03T19:01:53.975Z,4.60
2023-01-03T19:04:21.277Z,4.87
2023-01-03T19:06:51.927Z,4.77
2023-01-03T19:09:25.255Z,4.80
2023-01-03T19:11:54.259Z,5.07
2023-01-03T19:14:21.218Z,6.07
2023-01-03T19:16:48.450Z,4.40
2023-01-03T19:19:15.531Z,6.63
2023-01-03T19:21:46.269Z,3.30
2023-01-03T19:24:22.041Z,3.47
2023-01-03T19:26:58.362Z,3.63
2023-01-03T19:29:31.991Z,3.73
2023-01-03T19:31:59.193Z,3.67
2023-01-03T19:34:27.473Z,3.70
2023-01-03T19:36:54.389Z,4.03
2023-01-03T19:39:25.895Z,5.00
2023-01-03T19:42:17.894Z,4.30
2023-01-03T19:44:45.121Z,4.40
2023-01-03T19:47:18.347Z,4.17
2023-01-03T19:49:49.672Z,3.47
2023-01-03T19:52:17.384Z,3.73
2023-01-03T19:54:44.843Z,4.70
2023-01-03T19:57:21.993Z,3.63
2023-01-03T19:59:52.991Z,4.10
2023-01-03T20:02:35.051Z,3.77
2023-01-03T20:05:02.235Z,4.13
2023-01-03T20:07:29.207Z,3.60
2023-01-03T20:09:56.108Z,4.10
2023-01-03T20:12:26.272Z,5.97
2023-01-03T20:14:58.758Z,3.90
2023-01-03T20:17:29.578Z,4.00
2023-01-03T20:19:56.542Z,3.83
2023-01-03T20:23:03.336Z,4.87
2023-01-03T20:25:26.128Z,4.27
2023-01-03T20:27:54.124Z,4.00
2023-01-03T20:30:23.473Z,4.47
2023-01-03T20:32:50.566Z,3.97
2023-01-03T20:38:10.577Z,4.07
2023-01-03T20:40:38.027Z,4.30
2023-01-03T20:43:05.540Z,4.80
2023-01-03T20:45:32.798Z,4.37
2023-01-03T20:48:00.191Z,3.90
2023-01-03T20:50:28.709Z,4.03
2023-01-03T20:52:58.048Z,4.37
2023-01-03T20:55:26.832Z,3.90
2023-01-03T20:57:54.070Z,3.70
2023-01-03T21:00:23.505Z,4.50
2023-01-03T21:02:51.105Z,4.30
2023-01-03T21:05:18.644Z,4.10
2023-01-03T21:08:04.463Z,4.03
2023-01-03T21:10:35.729Z,4.43
2023-01-03T21:13:02.800Z,4.40
2023-01-03T21:15:29.729Z,4.20
2023-01-03T21:17:56.752Z,4.00
2023-01-03T21:20:25.823Z,4.43
2023-01-03T21:22:53.259Z,3.80
2023-01-03T21:25:22.984Z,4.60
2023-01-03T21:27:50.485Z,3.90
2023-01-03T21:30:22.266Z,3.63
2023-01-03T21:32:49.568Z,4.10
2023-01-03T21:35:18.759Z,4.00
2023-01-03T21:37:46.575Z,3.00
2023-01-03T21:40:21.407Z,3.60
2023-01-03T21:43:05.927Z,4.20
2023-01-03T21:45:39.557Z,3.93
2023-01-03T21:48:09.465Z,4.00
2023-01-03T21:50:39.915Z,4.83
2023-01-03T21:53:07.128Z,3.70
2023-01-03T21:55:34.102Z,4.37
2023-01-03T21:58:04.029Z,3.80
2023-01-03T22:00:30.949Z,3.80
2023-01-03T22:03:16.672Z,3.10
2023-01-03T22:05:43.624Z,4.23
2023-01-03T22:08:10.861Z,3.77
2023-01-03T22:10:37.845Z,3.63
2023-01-03T22:13:07.208Z,4.43
2023-01-03T22:15:38.713Z,3.80
2023-01-03T22:18:08.978Z,3.80
2023-01-03T22:20:38.867Z,4.13
2023-01-03T22:23:06.939Z,4.60
2023-01-03T22:25:33.975Z,3.80
2023-01-03T22:28:00.930Z,4.13
2023-01-03T22:30:27.893Z,4.10
2023-01-03T22:32:57.420Z,3.60
2023-01-03T22:35:24.643Z,4.47
2023-01-03T22:37:51.808Z,4.90
2023-01-03T22:40:18.770Z,4.00
2023-01-03T22:42:45.646Z,4.00
2023-01-03T22:45:15.407Z,4.40
2023-01-03T22:47:42.562Z,3.80
2023-01-03T22:50:11.320Z,4.23
2023-01-03T22:52:40.007Z,4.03
2023-01-03T22:55:07.806Z,3.90
2023-01-03T22:57:34.796Z,3.60
2023-01-03T23:00:02.051Z,3.93
2023-01-03T23:02:29.805Z,4.33
2023-01-03T23:04:57.859Z,4.73
2023-01-03T23:07:24.733Z,4.33
2023-01-03T23:09:51.827Z,3.73
2023-01-03T23:12:37.726Z,4.03
2023-01-03T23:15:05.096Z,4.13
2023-01-03T23:17:50.985Z,3.67
2023-01-03T23:20:18.298Z,4.10
2023-01-03T23:22:45.185Z,3.77
2023-01-03T23:25:15.065Z,3.90
2023-01-03T23:27:41.883Z,3.70
2023-01-03T23:30:09.766Z,4.77
2023-01-03T23:32:37.293Z,3.70
2023-01-03T23:35:04.497Z,3.77
2023-01-03T23:37:32.069Z,3.50
2023-01-03T23:39:58.969Z,4.03
2023-01-03T23:42:25.941Z,4.87
2023-01-03T23:44:52.772Z,3.70
2023-01-03T23:47:19.792Z,4.00
2023-01-03T23:49:47.101Z,3.57
2023-01-03T23:52:13.963Z,3.50
2023-01-03T23:54:41.227Z,3.43
2023-01-03T23:57:08.278Z,4.10
2023-01-03T23:59:35.180Z,3.80
